Time;durP1;ratioP1;P1;durP2;ratioP2;P2;SDS_P1;SDS_P2;PMS_P1;PMS_P2;Temp;Humidity;BMP_temperature;BMP_pressure;BME280_temperature;BME280_humidity;BME280_pressure;Samples;Min_cycle;Max_cycle;Signal;HPM_P1;HPM_P2
2022/01/11 00:01:43;;;;;;;5.82;3.55;;;-5.90;99.90;;;;;;5014420;28;20050;-75
2022/01/11 00:04:12;;;;;;;7.38;3.53;;;-5.90;99.90;;;;;;5020999;28;20111;-75
2022/01/11 00:06:44;;;;;;;6.03;3.55;;;-6.00;99.90;;;;;;5039153;28;20518;-75
2022/01/11 00:09:21;;;;;;;4.95;3.10;;;-6.00;99.90;;;;;;5031628;28;20142;-75
2022/01/11 00:11:50;;;;;;;6.20;3.83;;;-6.00;99.90;;;;;;5023316;28;20056;-76
2022/01/11 00:14:18;;;;;;;6.78;3.85;;;-6.00;99.90;;;;;;5032621;28;20056;-76
2022/01/11 00:16:46;;;;;;;6.53;3.75;;;-6.00;99.90;;;;;;5009225;28;20061;-76
2022/01/11 00:19:14;;;;;;;7.20;3.58;;;-5.90;99.90;;;;;;5021834;28;20044;-76
2022/01/11 00:21:47;;;;;;;7.65;3.88;;;-6.00;99.90;;;;;;5045968;28;20075;-76
2022/01/11 00:24:28;;;;;;;6.95;4.60;;;-6.00;99.90;;;;;;5046171;28;20050;-76
2022/01/11 00:27:01;;;;;;;8.98;4.30;;;-6.00;99.90;;;;;;4994685;28;20053;-77
2022/01/11 00:29:28;;;;;;;6.85;3.67;;;-6.00;99.90;;;;;;5039457;28;20041;-77
2022/01/11 00:32:05;;;;;;;4.68;3.63;;;-6.00;99.90;;;;;;5014654;28;20052;-77
2022/01/11 00:34:46;;;;;;;7.70;3.83;;;-6.10;99.90;;;;;;5047769;28;20045;-77
2022/01/11 00:37:15;;;;;;;5.60;3.13;;;-6.20;99.90;;;;;;5036157;28;20159;-77
2022/01/11 00:39:45;;;;;;;9.98;3.20;;;-6.10;99.90;;;;;;5014989;28;20137;-76
2022/01/11 00:42:14;;;;;;;6.95;3.40;;;-6.30;99.90;;;;;;5006519;28;20053;-77
2022/01/11 00:44:42;;;;;;;10.02;3.13;;;-6.30;99.90;;;;;;5028456;28;20041;-76
2022/01/11 00:47:10;;;;;;;6.00;3.72;;;-6.30;99.90;;;;;;5019920;28;20042;-76
2022/01/11 00:49:40;;;;;;;5.35;2.97;;;-6.30;99.90;;;;;;4995218;28;20572;-76
2022/01/11 00:52:08;;;;;;;8.82;3.72;;;-6.30;99.90;;;;;;5006166;28;20057;-76
2022/01/11 00:54:38;;;;;;;8.25;3.35;;;-6.30;99.90;;;;;;5032170;28;20049;-76
2022/01/11 00:57:06;;;;;;;8.27;3.80;;;-6.20;99.90;;;;;;5005042;28;20049;-76
2022/01/11 00:59:33;;;;;;;8.38;3.58;;;-6.20;99.90;;;;;;5030910;28;20545;-76
2022/01/11 01:02:02;;;;;;;5.60;3.10;;;-6.20;99.90;;;;;;5031846;28;20049;-77
2022/01/11 01:04:29;;;;;;;6.03;3.33;;;-6.20;99.90;;;;;;5031456;28;20107;-77
2022/01/11 01:06:57;;;;;;;4.80;3.10;;;-6.20;99.90;;;;;;5026789;28;20045;-77
2022/01/11 01:09:30;;;;;;;7.15;3.00;;;-6.30;99.90;;;;;;5031411;28;20148;-77
2022/01/11 01:11:59;;;;;;;9.18;3.97;;;-6.30;99.90;;;;;;5009996;28;20050;-76
2022/01/11 01:14:26;;;;;;;4.05;3.22;;;-6.30;99.90;;;;;;5030083;28;20142;-77
2022/01/11 01:16:54;;;;;;;8.65;3.80;;;-6.20;99.90;;;;;;5046622;28;20045;-76
2022/01/11 01:19:31;;;;;;;7.97;4.32;;;-6.20;99.90;;;;;;5020257;28;20049;-78
2022/01/11 01:21:58;;;;;;;5.03;3.08;;;-6.20;99.90;;;;;;4997120;28;20226;-76
2022/01/11 01:24:26;;;;;;;6.63;4.32;;;-6.20;99.90;;;;;;5030661;28;20046;-76
2022/01/11 01:26:53;;;;;;;4.95;3.38;;;-6.20;99.90;;;;;;5030812;28;20095;-77
2022/01/11 01:29:22;;;;;;;7.10;3.63;;;-6.30;99.90;;;;;;5030493;28;20552;-76
2022/01/11 01:31:49;;;;;;;7.85;3.50;;;-6.30;99.90;;;;;;5031170;28;20045;-77
2022/01/11 01:34:17;;;;;;;5.63;2.90;;;-6.20;99.90;;;;;;5030944;28;20514;-75
2022/01/11 01:36:45;;;;;;;6.40;3.17;;;-6.30;99.90;;;;;;5045168;28;20057;-74
2022/01/11 01:39:13;;;;;;;8.27;3.78;;;-6.30;99.90;;;;;;4997816;28;20056;-75
2022/01/11 01:41:43;;;;;;;5.57;2.97;;;-6.30;99.90;;;;;;4995971;28;20063;-76
2022/01/11 01:44:12;;;;;;;4.72;3.20;;;-6.30;99.90;;;;;;4996724;28;20096;-76
2022/01/11 01:46:42;;;;;;;5.32;3.10;;;-6.30;99.90;;;;;;4989339;28;20053;-76
2022/01/11 01:49:16;;;;;;;8.07;4.28;;;-6.40;99.90;;;;;;5038693;28;20053;-76
2022/01/11 01:51:44;;;;;;;5.82;4.03;;;-6.40;99.90;;;;;;4995834;28;20073;-76
2022/01/11 01:54:12;;;;;;;9.23;3.70;;;-6.40;99.90;;;;;;5013281;28;20076;-74
2022/01/11 01:56:40;;;;;;;8.13;3.58;;;-6.30;99.90;;;;;;5018352;28;20060;-74
2022/01/11 01:59:08;;;;;;;6.85;3.35;;;-6.40;99.90;;;;;;5013246;28;20137;-74
2022/01/11 02:01:43;;;;;;;5.60;3.38;;;-6.40;99.90;;;;;;5012364;28;20076;-74
2022/01/11 02:04:13;;;;;;;4.18;3.78;;;-6.40;99.90;;;;;;4993925;28;20462;-74
2022/01/11 02:06:40;;;;;;;6.45;3.22;;;-6.40;99.90;;;;;;5008408;28;20056;-75
2022/01/11 02:09:08;;;;;;;8.73;4.00;;;-6.40;99.90;;;;;;5015728;28;20037;-74
2022/01/11 02:11:35;;;;;;;7.00;3.78;;;-6.40;99.90;;;;;;5012977;28;20580;-75
2022/01/11 02:14:03;;;;;;;11.13;4.40;;;-6.50;99.90;;;;;;5028790;28;20061;-75
2022/01/11 02:16:31;;;;;;;5.78;3.90;;;-6.40;99.90;;;;;;4997897;28;20049;-75
2022/01/11 02:18:59;;;;;;;6.93;4.20;;;-6.40;99.90;;;;;;5012377;28;20052;-75
2022/01/11 02:21:28;;;;;;;7.22;3.90;;;-6.40;99.90;;;;;;4989961;28;20046;-75
2022/01/11 02:23:59;;;;;;;5.32;3.35;;;-6.40;99.90;;;;;;5010390;28;20100;-75
2022/01/11 02:26:30;;;;;;;;;;;-6.40;99.90;;;;;;5026888;28;20537;-75
2022/01/11 02:28:58;;;;;;;7.95;3.60;;;-6.40;99.90;;;;;;5028272;28;19924;-75
2022/01/11 02:31:25;;;;;;;6.05;4.40;;;-6.40;99.90;;;;;;5011243;28;20049;-75
2022/01/11 02:33:58;;;;;;;7.18;3.88;;;-6.50;99.90;;;;;;5016965;28;20583;-75
2022/01/11 02:36:57;;;;;;;4.68;2.83;;;-6.50;99.90;;;;;;5007394;28;20105;-76
2022/01/11 02:39:48;;;;;;;4.05;2.78;;;-6.50;99.90;;;;;;4985721;28;20092;-76
2022/01/11 02:42:26;;;;;;;5.40;3.28;;;-6.50;99.90;;;;;;5031649;28;20100;-76
2022/01/11 02:44:54;;;;;;;4.60;3.60;;;-6.60;99.90;;;;;;4995330;28;20061;-76
2022/01/11 02:47:23;;;;;;;5.75;3.63;;;-6.70;99.90;;;;;;5028017;28;20099;-76
2022/01/11 02:49:54;;;;;;;7.15;3.65;;;-6.70;99.90;;;;;;5046332;28;20489;-76
2022/01/11 02:52:27;;;;;;;8.57;4.10;;;-6.70;99.90;;;;;;5007419;28;20050;-76
2022/01/11 02:54:59;;;;;;;10.13;4.72;;;-6.70;99.90;;;;;;5003878;28;20046;-76
2022/01/11 02:57:27;;;;;;;6.97;4.45;;;-6.70;99.90;;;;;;5009433;28;20149;-76
2022/01/11 03:00:05;;;;;;;6.13;4.30;;;-6.70;99.90;;;;;;5023291;28;20068;-75
2022/01/11 03:02:35;;;;;;;8.23;4.68;;;-6.60;99.90;;;;;;5006764;28;20054;-75
2022/01/11 03:05:10;;;;;;;7.47;4.38;;;-6.60;99.90;;;;;;5029835;28;20132;-75
2022/01/11 03:07:41;;;;;;;8.85;5.05;;;-6.60;99.90;;;;;;5023664;28;20088;-75
2022/01/11 03:10:20;;;;;;;8.18;4.63;;;-6.70;99.90;;;;;;5012309;28;20053;-75
2022/01/11 03:12:51;;;;;;;8.50;3.87;;;-6.70;99.90;;;;;;5032189;28;20100;-76
2022/01/11 03:15:20;;;;;;;6.38;4.18;;;-6.60;99.90;;;;;;4992362;28;20038;-76
2022/01/11 03:17:51;;;;;;;7.30;4.10;;;-6.70;99.90;;;;;;5000431;28;20095;-76
2022/01/11 03:20:19;;;;;;;7.25;5.13;;;-6.70;99.90;;;;;;5010902;28;20058;-76
2022/01/11 03:22:51;;;;;;;9.25;4.72;;;-6.80;99.90;;;;;;5000331;28;20049;-76
2022/01/11 03:25:20;;;;;;;9.00;4.05;;;-6.80;99.90;;;;;;5009367;28;20421;-76
2022/01/11 03:27:49;;;;;;;9.23;5.05;;;-6.80;99.90;;;;;;5013561;28;20413;-76
2022/01/11 03:30:20;;;;;;;10.68;6.07;;;-6.80;99.90;;;;;;5041176;28;20088;-76
2022/01/11 03:32:50;;;;;;;7.80;5.57;;;-6.80;99.90;;;;;;5038020;28;20061;-75
2022/01/11 03:35:25;;;;;;;13.45;5.57;;;-6.80;99.90;;;;;;5026613;28;20069;-76
2022/01/11 03:37:55;;;;;;;12.55;6.57;;;-6.80;99.90;;;;;;5047596;28;20438;-76
2022/01/11 03:40:26;;;;;;;11.55;5.25;;;-6.70;99.90;;;;;;5015706;28;20440;-77
2022/01/11 03:42:55;;;;;;;9.07;4.95;;;-6.70;99.90;;;;;;4994642;28;20053;-76
2022/01/11 03:45:24;;;;;;;10.60;5.43;;;-6.70;99.90;;;;;;5008978;28;20076;-77
2022/01/11 03:47:58;;;;;;;9.30;5.57;;;-6.70;99.90;;;;;;5041056;28;20140;-75
2022/01/11 03:50:29;;;;;;;11.93;5.50;;;-6.70;99.90;;;;;;4998277;28;20099;-75
2022/01/11 03:53:06;;;;;;;13.05;5.97;;;-6.80;99.90;;;;;;5015280;28;20052;-76
2022/01/11 03:55:45;;;;;;;11.32;5.13;;;-6.70;99.90;;;;;;5032194;28;20052;-76
2022/01/11 03:58:16;;;;;;;9.15;5.50;;;-6.80;99.90;;;;;;5012998;28;20528;-76
2022/01/11 04:00:45;;;;;;;7.70;5.00;;;-6.90;99.90;;;;;;5026770;28;20057;-76
2022/01/11 04:03:13;;;;;;;13.13;6.05;;;-6.90;99.90;;;;;;5013588;28;20356;-75
2022/01/11 04:05:43;;;;;;;11.50;5.78;;;-7.00;99.90;;;;;;5012919;28;20431;-76
2022/01/11 04:08:13;;;;;;;10.15;5.38;;;-7.00;99.90;;;;;;5000124;28;20514;-77
2022/01/11 04:10:40;;;;;;;15.88;5.97;;;-7.10;99.90;;;;;;5032163;28;20060;-75
2022/01/11 04:13:08;;;;;;;13.50;6.60;;;-7.10;99.90;;;;;;5005695;28;20073;-75
2022/01/11 04:15:36;;;;;;;13.18;7.10;;;-7.10;99.90;;;;;;5009177;28;20055;-75
2022/01/11 04:18:04;;;;;;;10.35;6.75;;;-7.20;99.90;;;;;;5006125;28;20054;-74
2022/01/11 04:20:32;;;;;;;11.13;6.63;;;-7.20;99.90;;;;;;5014060;28;20049;-75
2022/01/11 04:23:00;;;;;;;11.27;6.90;;;-7.20;99.90;;;;;;4991874;28;20578;-74
2022/01/11 04:25:30;;;;;;;14.00;7.68;;;-7.20;99.90;;;;;;5011938;28;20132;-75
2022/01/11 04:28:01;;;;;;;14.32;7.55;;;-7.20;99.90;;;;;;5016595;28;20088;-75
2022/01/11 04:30:29;;;;;;;18.13;8.18;;;-7.30;99.90;;;;;;5032153;28;20052;-75
2022/01/11 04:32:57;;;;;;;12.68;7.47;;;-7.30;99.90;;;;;;5015190;28;20045;-77
2022/01/11 04:35:24;;;;;;;14.55;8.23;;;-7.30;99.90;;;;;;5032327;28;20076;-75
2022/01/11 04:37:53;;;;;;;15.20;7.63;;;-7.30;99.90;;;;;;4998468;28;20540;-74
2022/01/11 04:40:24;;;;;;;15.13;7.35;;;-7.30;99.90;;;;;;5017986;28;20045;-74
2022/01/11 04:42:53;;;;;;;15.38;8.50;;;-7.20;99.90;;;;;;5030877;28;20060;-76
2022/01/11 04:45:22;;;;;;;15.23;8.93;;;-7.20;99.90;;;;;;5031050;28;20095;-74
2022/01/11 04:47:56;;;;;;;13.52;8.35;;;-7.20;99.90;;;;;;5048104;28;20041;-80
2022/01/11 04:50:25;;;;;;;;;;;-7.20;99.90;;;;;;5048686;28;20083;-80
2022/01/11 04:52:53;;;;;;;15.73;8.25;;;-7.20;99.90;;;;;;5014168;28;20443;-75
2022/01/11 04:55:23;;;;;;;16.88;8.65;;;-7.40;99.90;;;;;;5014673;28;20045;-76
2022/01/11 04:57:55;;;;;;;19.35;9.55;;;-7.40;99.90;;;;;;5032098;28;20064;-76
2022/01/11 05:00:25;;;;;;;16.52;9.30;;;-7.40;99.90;;;;;;5014142;28;20069;-76
2022/01/11 05:02:56;;;;;;;16.15;9.18;;;-7.40;99.90;;;;;;4994239;28;20418;-78
2022/01/11 05:05:23;;;;;;;18.77;10.27;;;-7.30;99.90;;;;;;5046038;28;20144;-76
2022/01/11 05:07:53;;;;;;;17.08;9.52;;;-7.30;99.90;;;;;;5007578;28;20404;-78
2022/01/11 05:10:21;;;;;;;17.35;10.00;;;-7.30;99.90;;;;;;5011516;28;20042;-79
2022/01/11 05:12:49;;;;;;;16.52;9.70;;;-7.30;99.90;;;;;;5012573;28;20077;-78
2022/01/11 05:15:19;;;;;;;21.60;11.13;;;-7.30;99.90;;;;;;5027690;28;20495;-78
2022/01/11 05:17:48;;;;;;;16.35;9.80;;;-7.30;99.90;;;;;;5009433;28;20104;-78
2022/01/11 05:20:17;;;;;;;17.10;9.57;;;-7.40;99.90;;;;;;5037054;28;20128;-78
2022/01/11 05:22:45;;;;;;;16.27;9.63;;;-7.30;99.90;;;;;;5031574;28;20403;-78
2022/01/11 05:25:15;;;;;;;19.30;10.50;;;-7.40;99.90;;;;;;5031454;28;20060;-78
2022/01/11 05:27:43;;;;;;;17.98;10.40;;;-7.30;99.90;;;;;;5030480;28;20045;-78
2022/01/11 05:30:12;;;;;;;19.10;11.02;;;-7.30;99.90;;;;;;5029548;28;20057;-78
2022/01/11 05:32:42;;;;;;;20.95;11.38;;;-7.20;99.90;;;;;;4997575;28;20045;-77
2022/01/11 05:35:13;;;;;;;21.00;10.15;;;-7.20;99.90;;;;;;5013645;28;20056;-77
2022/01/11 05:37:40;;;;;;;23.33;10.88;;;-7.30;99.90;;;;;;4993393;28;20077;-79
2022/01/11 05:40:10;;;;;;;17.50;9.48;;;-7.30;99.90;;;;;;4997946;28;20054;-80
2022/01/11 05:42:39;;;;;;;21.58;11.55;;;-7.40;99.90;;;;;;5012419;28;20077;-80
2022/01/11 05:45:09;;;;;;;21.45;11.10;;;-7.50;99.90;;;;;;5030316;28;20459;-80
2022/01/11 05:47:37;;;;;;;22.42;10.95;;;-7.50;99.90;;;;;;4995356;28;20056;-81
2022/01/11 05:50:09;;;;;;;16.33;9.73;;;-7.60;99.90;;;;;;5013802;28;20048;-82
2022/01/11 05:52:39;;;;;;;21.67;10.65;;;-7.60;99.90;;;;;;4997141;28;20060;-82
2022/01/11 05:55:10;;;;;;;18.75;11.25;;;-7.60;99.90;;;;;;5030495;28;20129;-81
2022/01/11 05:57:38;;;;;;;21.07;10.90;;;-7.70;99.90;;;;;;5012907;28;20522;-83
2022/01/11 06:00:11;;;;;;;21.20;11.40;;;-7.60;99.90;;;;;;4997220;28;20455;-83
2022/01/11 06:02:48;;;;;;;25.05;11.90;;;-7.50;99.90;;;;;;4996726;28;20053;-84
2022/01/11 06:05:25;;;;;;;28.35;12.05;;;-7.60;99.90;;;;;;5029262;28;20056;-81
2022/01/11 06:07:53;;;;;;;23.70;12.95;;;-7.60;99.90;;;;;;5029829;28;20465;-82
2022/01/11 06:10:21;;;;;;;23.58;11.93;;;-7.60;99.90;;;;;;5013381;28;20051;-82
2022/01/11 06:12:49;;;;;;;21.15;11.45;;;-7.60;99.90;;;;;;5030090;28;20502;-82
2022/01/11 06:15:17;;;;;;;21.27;11.93;;;-7.50;99.90;;;;;;5028826;28;20063;-83
2022/01/11 06:17:44;;;;;;;23.15;12.35;;;-7.50;99.90;;;;;;5031133;28;20151;-80
2022/01/11 06:20:13;;;;;;;21.10;12.63;;;-7.40;99.90;;;;;;5012751;28;20040;-80
2022/01/11 06:22:44;;;;;;;25.15;12.55;;;-7.50;99.90;;;;;;5011104;28;20049;-80
2022/01/11 06:25:14;;;;;;;28.15;12.90;;;-7.50;99.90;;;;;;4995339;28;20046;-80
2022/01/11 06:27:42;;;;;;;23.90;12.63;;;-7.50;99.90;;;;;;5011869;28;21380;-81
2022/01/11 06:30:11;;;;;;;22.73;12.70;;;-7.50;99.90;;;;;;4995212;28;20096;-83
2022/01/11 06:32:43;;;;;;;24.90;12.57;;;-7.40;99.90;;;;;;5010606;28;20049;-80
2022/01/11 06:35:13;;;;;;;26.15;12.13;;;-7.40;99.90;;;;;;4993113;28;20559;-82
2022/01/11 06:37:40;;;;;;;21.98;12.00;;;-7.40;99.90;;;;;;4995550;28;20061;-81
2022/01/11 06:40:12;;;;;;;22.67;12.68;;;-7.40;99.90;;;;;;5042294;28;20421;-80
2022/01/11 06:42:39;;;;;;;27.33;13.02;;;-7.30;99.90;;;;;;5006977;28;20049;-80
2022/01/11 06:45:08;;;;;;;25.25;13.88;;;-7.30;99.90;;;;;;5011860;28;20127;-81
2022/01/11 06:47:36;;;;;;;24.55;12.38;;;-7.20;99.90;;;;;;5009794;28;20438;-77
2022/01/11 06:50:05;;;;;;;27.33;13.77;;;-7.20;99.90;;;;;;5007744;28;20093;-76
2022/01/11 06:52:36;;;;;;;23.85;13.73;;;-7.20;99.90;;;;;;5011417;28;20096;-77
2022/01/11 06:55:05;;;;;;;31.77;15.05;;;-7.20;99.90;;;;;;5011754;28;20104;-78
2022/01/11 06:57:34;;;;;;;29.02;13.70;;;-7.20;99.90;;;;;;5011479;28;20160;-78
2022/01/11 07:00:02;;;;;;;30.92;14.57;;;-7.20;99.90;;;;;;5008923;28;20080;-77
2022/01/11 07:02:31;;;;;;;28.35;14.10;;;-7.10;99.90;;;;;;5008759;28;20077;-78
2022/01/11 07:05:21;;;;;;;26.80;13.35;;;-7.10;99.90;;;;;;4989585;28;20061;-77
2022/01/11 07:07:52;;;;;;;33.22;14.85;;;-7.10;99.90;;;;;;5007990;28;20060;-82
2022/01/11 07:10:20;;;;;;;29.40;14.50;;;-7.10;99.90;;;;;;5014391;28;20056;-81
2022/01/11 07:12:50;;;;;;;28.75;15.60;;;-7.10;99.90;;;;;;5014663;28;20049;-83
2022/01/11 07:15:18;;;;;;;31.35;15.65;;;-7.10;99.90;;;;;;5015647;28;20434;-81
2022/01/11 07:17:48;;;;;;;32.63;16.30;;;-7.20;99.90;;;;;;5016079;28;20056;-82
2022/01/11 07:20:16;;;;;;;29.50;14.88;;;-7.20;99.90;;;;;;5033924;28;20488;-81
2022/01/11 07:22:45;;;;;;;34.97;16.48;;;-7.30;99.90;;;;;;5016248;28;20053;-82
2022/01/11 07:25:13;;;;;;;37.53;16.95;;;-7.20;99.90;;;;;;5015941;28;20106;-81
2022/01/11 07:27:42;;;;;;;30.70;15.90;;;-7.20;99.90;;;;;;5016501;28;20053;-80
2022/01/11 07:30:13;;;;;;;33.78;16.20;;;-7.10;99.90;;;;;;5015950;28;20502;-78
2022/01/11 07:32:47;;;;;;;34.42;16.65;;;-7.10;99.90;;;;;;5016279;28;20053;-79
2022/01/11 07:35:14;;;;;;;34.60;16.42;;;-7.10;99.90;;;;;;5015237;28;20060;-80
2022/01/11 07:37:43;;;;;;;36.42;17.20;;;-7.10;99.90;;;;;;4996186;28;20072;-80
2022/01/11 07:40:14;;;;;;;32.38;17.20;;;-7.10;99.90;;;;;;4997784;28;20046;-80
2022/01/11 07:42:45;;;;;;;31.33;16.23;;;-7.10;99.90;;;;;;5016316;28;20053;-80
2022/01/11 07:45:35;;;;;;;35.17;16.50;;;-7.00;99.90;;;;;;5033670;28;20060;-80
2022/01/11 07:48:05;;;;;;;36.50;16.77;;;-7.00;99.90;;;;;;4999251;28;20050;-80
2022/01/11 07:50:40;;;;;;;31.00;16.55;;;-7.00;99.90;;;;;;5015674;28;20091;-80
2022/01/11 07:53:08;;;;;;;40.30;17.95;;;-7.00;99.90;;;;;;5015612;28;20119;-79
2022/01/11 07:55:40;;;;;;;36.90;18.20;;;-7.00;99.90;;;;;;5015904;28;20136;-82
2022/01/11 07:58:11;;;;;;;34.63;17.17;;;-7.00;99.90;;;;;;4998800;28;20049;-81
2022/01/11 08:00:43;;;;;;;39.72;17.67;;;-7.00;99.90;;;;;;5033032;28;20575;-82
2022/01/11 08:03:14;;;;;;;33.10;16.30;;;-7.00;99.90;;;;;;5014561;28;20049;-81
2022/01/11 08:05:52;;;;;;;35.58;16.25;;;-6.90;99.90;;;;;;4998290;28;20081;-82
2022/01/11 08:08:27;;;;;;;33.70;17.23;;;-6.90;99.90;;;;;;5015026;28;20050;-82
2022/01/11 08:10:58;;;;;;;34.28;17.17;;;-6.80;99.90;;;;;;5003969;28;20147;-81
2022/01/11 08:13:26;;;;;;;36.42;18.55;;;-6.80;99.90;;;;;;5014984;28;20428;-76
2022/01/11 08:15:55;;;;;;;36.28;17.60;;;-6.90;99.90;;;;;;5011683;28;20080;-76
2022/01/11 08:18:23;;;;;;;34.83;17.10;;;-6.90;99.90;;;;;;5011716;28;20057;-76
2022/01/11 08:20:51;;;;;;;37.00;17.92;;;-6.90;99.90;;;;;;5018039;28;20046;-77
2022/01/11 08:23:20;;;;;;;37.85;17.85;;;-6.90;99.90;;;;;;4995431;28;20050;-77
2022/01/11 08:25:48;;;;;;;39.63;19.63;;;-6.90;99.90;;;;;;5018121;28;20502;-80
2022/01/11 08:28:16;;;;;;;37.75;19.77;;;-6.90;99.90;;;;;;5030211;28;20103;-79
2022/01/11 08:30:51;;;;;;;39.97;18.52;;;-6.90;99.90;;;;;;5031552;28;20071;-81
2022/01/11 08:33:21;;;;;;;36.28;18.38;;;-6.90;99.90;;;;;;5009648;28;20123;-81
2022/01/11 08:35:48;;;;;;;38.33;18.38;;;-6.90;99.90;;;;;;4994880;28;20084;-81
2022/01/11 08:38:18;;;;;;;38.58;18.27;;;-7.00;99.90;;;;;;4996063;28;20058;-82
2022/01/11 08:40:49;;;;;;;42.22;17.70;;;-7.00;99.90;;;;;;5032459;28;20183;-82
2022/01/11 08:43:18;;;;;;;38.72;17.75;;;-7.00;99.90;;;;;;5014617;28;20060;-82
2022/01/11 08:45:46;;;;;;;37.58;17.25;;;-7.00;99.90;;;;;;5030812;28;20528;-80
2022/01/11 08:48:17;;;;;;;34.40;17.48;;;-7.00;99.90;;;;;;5047658;28;20068;-81
2022/01/11 08:51:03;;;;;;;40.53;17.88;;;-7.00;99.90;;;;;;5047219;28;20517;-81
2022/01/11 08:53:32;;;;;;;34.95;17.55;;;-6.90;99.90;;;;;;5043762;28;20053;-80
2022/01/11 08:56:06;;;;;;;43.63;17.60;;;-6.90;99.90;;;;;;4986519;28;20045;-81
2022/01/11 08:58:37;;;;;;;38.75;17.48;;;-6.90;99.90;;;;;;5030387;28;20071;-82
2022/01/11 09:01:06;;;;;;;43.05;16.67;;;-6.90;99.90;;;;;;5030325;28;20079;-81
2022/01/11 09:03:36;;;;;;;45.25;17.90;;;-6.80;99.90;;;;;;5030728;28;20041;-80
2022/01/11 09:06:08;;;;;;;40.65;17.70;;;-6.90;99.90;;;;;;5014075;28;20127;-80
2022/01/11 09:08:36;;;;;;;40.55;17.98;;;-7.00;99.90;;;;;;5014013;28;20057;-80
2022/01/11 09:11:06;;;;;;;40.53;17.60;;;-7.00;99.90;;;;;;5013701;28;20056;-82
2022/01/11 09:13:34;;;;;;;39.05;17.02;;;-7.10;99.90;;;;;;4997109;28;20049;-79
2022/01/11 09:16:03;;;;;;;40.25;17.15;;;-7.10;99.90;;;;;;5013348;28;20053;-81
2022/01/11 09:18:32;;;;;;;39.80;17.92;;;-7.10;99.90;;;;;;5013958;28;20053;-81
2022/01/11 09:21:00;;;;;;;46.80;19.23;;;-7.00;99.90;;;;;;4997222;28;20180;-82
2022/01/11 09:23:30;;;;;;;43.90;18.20;;;-6.90;99.90;;;;;;5013956;28;20045;-81
2022/01/11 09:25:58;;;;;;;43.90;19.00;;;-7.00;99.90;;;;;;5013661;28;20053;-81
2022/01/11 09:28:26;;;;;;;39.30;18.92;;;-7.00;99.90;;;;;;5009749;28;20045;-83
2022/01/11 09:30:54;;;;;;;35.53;18.05;;;-7.10;99.90;;;;;;5029202;28;20490;-81
2022/01/11 09:33:22;;;;;;;43.22;18.90;;;-7.10;99.90;;;;;;5013602;28;20143;-80
2022/01/11 09:35:50;;;;;;;44.00;18.83;;;-7.20;99.90;;;;;;5012989;28;20132;-80
2022/01/11 09:38:22;;;;;;;43.78;18.65;;;-7.20;99.90;;;;;;5013441;28;20076;-80
2022/01/11 09:40:57;;;;;;;40.08;17.50;;;-7.20;99.90;;;;;;5013073;28;20057;-78
2022/01/11 09:43:29;;;;;;;42.38;19.00;;;-7.10;99.90;;;;;;5013673;28;20513;-79
2022/01/11 09:46:03;;;;;;;50.67;18.17;;;-7.00;99.90;;;;;;5009838;28;20056;-80
2022/01/11 09:48:34;;;;;;;41.05;18.55;;;-7.10;99.90;;;;;;5013549;28;20087;-80
2022/01/11 09:51:02;;;;;;;44.70;18.15;;;-7.10;99.90;;;;;;4994491;28;20506;-82
2022/01/11 09:53:32;;;;;;;42.92;18.70;;;-7.00;99.90;;;;;;5006350;28;20042;-77
2022/01/11 09:56:07;;;;;;;47.50;19.23;;;-7.10;99.90;;;;;;5011419;28;20042;-82
2022/01/11 09:58:37;;;;;;;42.67;18.25;;;-7.10;99.90;;;;;;5009333;28;20474;-81
2022/01/11 10:01:24;;;;;;;50.30;19.50;;;-7.10;99.90;;;;;;5030516;28;20049;-80
2022/01/11 10:04:14;;;;;;;48.85;19.30;;;-7.10;99.90;;;;;;5029981;28;20053;-81
2022/01/11 10:06:55;;;;;;;42.47;19.65;;;-7.10;99.90;;;;;;5023146;28;20060;-82
2022/01/11 10:09:26;;;;;;;51.92;19.25;;;-7.00;99.90;;;;;;5013407;28;20418;-79
2022/01/11 10:11:59;;;;;;;42.70;17.35;;;-7.00;99.90;;;;;;5024197;28;20060;-81
2022/01/11 10:14:32;;;;;;;62.60;24.17;;;-6.90;99.90;;;;;;5011895;28;20541;-81
2022/01/11 10:17:16;;;;;;;89.43;28.70;;;-6.90;99.90;;;;;;5026646;28;20088;-79
2022/01/11 10:19:47;;;;;;;79.50;27.80;;;-6.80;99.90;;;;;;5010421;28;20060;-76
2022/01/11 10:22:20;;;;;;;106.15;31.80;;;-6.50;99.90;;;;;;5010340;28;20056;-78
2022/01/11 10:24:50;;;;;;;70.13;24.50;;;-6.20;99.90;;;;;;5023628;28;20522;-77
2022/01/11 10:27:32;;;;;;;71.97;25.85;;;-6.00;99.90;;;;;;4998821;28;20085;-76
2022/01/11 10:30:06;;;;;;;99.00;32.10;;;-5.90;99.90;;;;;;5026815;28;20140;-78
2022/01/11 10:32:37;;;;;;;99.18;30.30;;;-5.90;99.90;;;;;;5010785;28;20060;-79
2022/01/11 10:35:16;;;;;;;47.67;20.02;;;-6.00;99.90;;;;;;5007064;28;20049;-77
2022/01/11 10:37:47;;;;;;;64.55;23.20;;;-6.20;99.90;;;;;;5007203;28;20042;-77
2022/01/11 10:40:18;;;;;;;44.42;20.27;;;-6.50;99.90;;;;;;5027772;28;20057;-77
2022/01/11 10:42:51;;;;;;;45.72;20.13;;;-6.60;99.90;;;;;;5012051;28;20061;-77
2022/01/11 10:45:21;;;;;;;43.05;20.30;;;-6.60;99.90;;;;;;5010662;28;20037;-76
2022/01/11 10:47:54;;;;;;;134.50;42.35;;;-6.70;99.90;;;;;;5028058;28;20519;-77
2022/01/11 10:50:28;;;;;;;110.85;37.92;;;-6.80;99.90;;;;;;5017460;28;20057;-77
2022/01/11 10:52:58;;;;;;;54.28;22.80;;;-6.80;99.90;;;;;;5009710;28;20080;-77
2022/01/11 10:55:33;;;;;;;37.38;16.73;;;-6.90;99.90;;;;;;5010834;28;20498;-77
2022/01/11 10:58:05;;;;;;;45.28;19.48;;;-7.00;99.90;;;;;;5002209;28;20528;-76
2022/01/11 11:00:37;;;;;;;;;;;-7.20;99.90;;;;;;5024003;28;20085;-78
2022/01/11 11:03:10;;;;;;;54.03;22.00;;;-7.30;99.90;;;;;;4999678;28;19925;-77
2022/01/11 11:05:41;;;;;;;51.10;22.52;;;-7.50;99.90;;;;;;4997666;28;20080;-79
2022/01/11 11:08:20;;;;;;;56.22;23.38;;;-7.60;99.90;;;;;;5009694;28;20053;-78
2022/01/11 11:11:05;;;;;;;57.38;25.75;;;-7.80;99.90;;;;;;5014259;28;20045;-78
2022/01/11 11:13:37;;;;;;;71.45;26.92;;;-7.90;99.90;;;;;;4996865;28;20457;-77
2022/01/11 11:16:12;;;;;;;71.43;27.40;;;-8.10;99.90;;;;;;5009050;28;20042;-77
2022/01/11 11:18:44;;;;;;;62.53;26.48;;;-8.20;99.90;;;;;;5006152;28;20060;-76
2022/01/11 11:21:37;;;;;;;58.65;22.10;;;-8.30;99.90;;;;;;5006894;28;20077;-76
2022/01/11 11:24:16;;;;;;;59.40;22.10;;;-8.30;99.90;;;;;;5014014;28;20060;-80
2022/01/11 11:26:49;;;;;;;62.95;23.58;;;-8.40;99.90;;;;;;4995957;28;20042;-79
2022/01/11 11:29:22;;;;;;;38.70;18.10;;;-8.40;99.90;;;;;;5031787;28;20054;-78
2022/01/11 11:31:50;;;;;;;;;;;-8.50;99.90;;;;;;4996545;28;20438;-79
2022/01/11 11:34:18;;;;;;;22.25;9.38;;;-8.70;99.90;;;;;;5026150;28;19929;-80
2022/01/11 11:37:36;;;;;;;19.60;10.50;;;-8.80;99.90;;;;;;5030191;28;20076;-76
2022/01/11 11:40:14;;;;;;;25.17;10.45;;;-8.90;99.90;;;;;;5014575;28;20057;-79
2022/01/11 11:42:42;;;;;;;20.95;9.75;;;-9.00;99.90;;;;;;5031811;28;20041;-75
2022/01/11 11:45:22;;;;;;;23.50;10.70;;;-9.10;99.90;;;;;;5021081;28;20280;-76
2022/01/11 11:47:50;;;;;;;21.33;10.55;;;-9.20;99.90;;;;;;5029702;28;20053;-76
2022/01/11 11:50:22;;;;;;;27.02;10.77;;;-9.30;99.90;;;;;;5030928;28;20037;-76
2022/01/11 11:52:52;;;;;;;27.70;11.97;;;-9.40;99.90;;;;;;5031648;28;20095;-77
2022/01/11 11:55:24;;;;;;;23.35;11.85;;;-9.50;99.90;;;;;;5029377;28;20494;-76
2022/01/11 11:57:56;;;;;;;20.08;9.95;;;-9.50;99.90;;;;;;5012771;28;20049;-76
2022/01/11 12:00:30;;;;;;;20.60;9.43;;;-9.60;99.90;;;;;;5029970;28;20072;-76
2022/01/11 12:02:59;;;;;;;21.55;9.43;;;-9.60;99.90;;;;;;5032123;28;20057;-77
2022/01/11 12:05:37;;;;;;;19.45;8.10;;;-9.40;99.90;;;;;;5032653;28;20047;-76
2022/01/11 12:08:31;;;;;;;18.77;9.60;;;-8.90;99.90;;;;;;5012490;28;20145;-77
2022/01/11 12:11:03;;;;;;;20.67;9.32;;;-8.60;99.90;;;;;;5030877;28;20128;-78
2022/01/11 12:13:47;;;;;;;25.60;9.90;;;-8.70;99.90;;;;;;5033256;28;20060;-76
2022/01/11 12:16:40;;;;;;;25.35;10.32;;;-9.00;99.90;;;;;;5027131;28;20041;-75
2022/01/11 12:19:15;;;;;;;33.63;10.88;;;-9.40;99.90;;;;;;5011504;28;20058;-75
2022/01/11 12:21:46;;;;;;;24.98;9.75;;;-9.60;99.90;;;;;;5012635;28;20561;-77
2022/01/11 12:24:14;;;;;;;22.65;9.52;;;-9.80;99.90;;;;;;4997389;28;20049;-76
2022/01/11 12:26:42;;;;;;;23.50;9.63;;;-10.00;99.90;;;;;;5032959;28;20053;-76
2022/01/11 12:29:27;;;;;;;24.30;9.65;;;-10.00;99.90;;;;;;5012988;28;20057;-77
2022/01/11 12:32:05;;;;;;;25.17;10.57;;;-10.10;99.90;;;;;;5022760;28;20514;-76
2022/01/11 12:34:57;;;;;;;22.75;10.15;;;-10.20;99.90;;;;;;5029417;28;20140;-77
2022/01/11 12:37:42;;;;;;;23.27;9.40;;;-10.20;99.90;;;;;;5031996;28;20127;-84
2022/01/11 12:40:29;;;;;;;19.15;9.57;;;-10.20;99.90;;;;;;5029695;28;20870;-85
2022/01/11 12:43:06;;;;;;;24.58;10.05;;;-10.30;99.90;;;;;;5030595;28;20057;-83
2022/01/11 12:46:02;;;;;;;19.40;8.68;;;-10.40;99.90;;;;;;5033034;28;20049;-78
2022/01/11 12:49:03;;;;;;;26.55;10.13;;;-10.40;99.90;;;;;;5032831;28;20530;-79
2022/01/11 12:51:37;;;;;;;20.35;8.88;;;-10.40;99.90;;;;;;4974082;28;20058;-80
2022/01/11 12:54:28;;;;;;;19.95;9.18;;;-10.50;99.90;;;;;;5033469;28;20049;-80
2022/01/11 12:57:00;;;;;;;26.10;10.07;;;-10.50;99.90;;;;;;5006224;28;20045;-81
2022/01/11 12:59:31;;;;;;;21.40;10.80;;;-10.50;99.90;;;;;;5025766;28;20510;-82